Time;durP1;ratioP1;P1;durP2;ratioP2;P2;SDS_P1;SDS_P2;PMS_P1;PMS_P2;Temp;Humidity;BMP_temperature;BMP_pressure;BME280_temperature;BME280_humidity;BME280_pressure;Samples;Min_cycle;Max_cycle;Signal;HPM_P1;HPM_P2
2022/12/16 00:01:42;;;;;;;25.58;8.82;;;;;;;;;;5104435;28;20051;-76
2022/12/16 00:04:08;;;;;;;23.55;8.35;;;;;;;;;;5104279;28;20047;-76
2022/12/16 00:06:34;;;;;;;25.52;9.40;;;;;;;;;;5066354;28;20036;-76
2022/12/16 00:09:01;;;;;;;24.73;8.85;;;;;;;;;;5086140;28;20027;-77
2022/12/16 00:11:27;;;;;;;25.05;9.15;;;;;;;;;;5069477;28;20035;-76
2022/12/16 00:13:53;;;;;;;25.05;7.97;;;;;;;;;;5102573;28;20415;-76
2022/12/16 00:16:20;;;;;;;19.65;8.50;;;1.80;99.90;;;;;;5101430;28;20446;-76
2022/12/16 00:18:46;;;;;;;27.50;9.50;;;;;;;;;;5103010;28;20047;-76
2022/12/16 00:21:13;;;;;;;18.58;7.22;;;;;;;;;;5101502;28;20082;-76
2022/12/16 00:23:40;;;;;;;26.45;8.82;;;1.50;99.90;;;;;;5103844;28;20087;-77
2022/12/16 00:26:07;;;;;;;24.70;8.20;;;1.60;99.90;;;;;;5100766;28;20032;-77
2022/12/16 00:28:33;;;;;;;21.10;7.15;;;;;;;;;;5103310;28;20028;-77
2022/12/16 00:30:59;;;;;;;20.88;7.85;;;;;;;;;;5085179;28;20036;-76
2022/12/16 00:33:26;;;;;;;18.92;6.88;;;1.70;99.90;;;;;;5095104;28;20066;-77
2022/12/16 00:35:53;;;;;;;20.63;7.07;;;;;;;;;;5102383;28;20043;-77
2022/12/16 00:38:19;;;;;;;19.98;7.50;;;;;;;;;;5084200;28;20475;-77
2022/12/16 00:40:45;;;;;;;22.25;7.85;;;;;;;;;;5068375;28;20036;-77
2022/12/16 00:43:11;;;;;;;16.83;6.72;;;;;;;;;;5103232;28;20052;-76
2022/12/16 00:45:38;;;;;;;21.08;7.32;;;;;;;;;;5086779;28;20058;-76
2022/12/16 00:48:04;;;;;;;22.42;7.13;;;;;;;;;;5101394;28;20031;-76
2022/12/16 00:50:30;;;;;;;20.58;7.57;;;;;;;;;;5103068;28;20455;-76
2022/12/16 00:52:56;;;;;;;15.27;6.65;;;;;;;;;;5102340;28;20109;-77
2022/12/16 00:55:22;;;;;;;19.27;7.40;;;;;;;;;;5085707;28;20039;-76
2022/12/16 00:57:48;;;;;;;18.42;7.60;;;;;;;;;;5085808;28;20036;-76
2022/12/16 01:00:17;;;;;;;27.23;7.50;;;1.50;99.90;;;;;;5101772;28;20043;-76
2022/12/16 01:02:44;;;;;;;19.88;6.93;;;;;;;;;;5102071;28;20046;-76
2022/12/16 01:05:11;;;;;;;17.63;6.78;;;1.20;99.90;;;;;;5086061;28;20047;-76
2022/12/16 01:07:38;;;;;;;19.08;6.80;;;;;;;;;;5085955;28;20027;-77
2022/12/16 01:10:05;;;;;;;18.00;7.35;;;;;;;;;;5103467;28;20032;-76
2022/12/16 01:12:31;;;;;;;25.42;7.82;;;;;;;;;;5068063;28;20040;-76
2022/12/16 01:14:57;;;;;;;33.25;7.93;;;;;;;;;;5100465;28;20067;-77
2022/12/16 01:17:24;;;;;;;25.58;7.57;;;;;;;;;;5101804;28;20499;-77
2022/12/16 01:19:51;;;;;;;23.10;8.02;;;;;;;;;;5086159;28;20040;-76
2022/12/16 01:22:17;;;;;;;20.23;7.70;;;;;;;;;;5083202;28;20068;-76
2022/12/16 01:24:44;;;;;;;22.58;8.35;;;;;;;;;;5099728;28;20058;-76
2022/12/16 01:27:10;;;;;;;16.67;6.85;;;;;;;;;;5102165;28;20031;-76
2022/12/16 01:29:36;;;;;;;23.40;7.18;;;;;;;;;;5099471;28;20085;-76
2022/12/16 01:32:02;;;;;;;20.05;7.65;;;;;;;;;;5100656;28;20542;-76
2022/12/16 01:34:28;;;;;;;21.88;7.43;;;;;;;;;;5102285;28;20055;-76
2022/12/16 01:36:54;;;;;;;21.52;7.07;;;;;;;;;;5102552;28;20108;-76
2022/12/16 01:39:20;;;;;;;17.90;7.47;;;;;;;;;;5084492;28;20032;-76
2022/12/16 01:41:47;;;;;;;13.27;6.93;;;;;;;;;;5103051;28;20048;-76
2022/12/16 01:44:19;;;;;;;23.90;7.15;;;1.10;99.90;;;;;;5101404;28;20044;-76
2022/12/16 01:46:49;;;;;;;17.42;7.15;;;1.10;99.90;;;;;;5100851;28;20589;-76
2022/12/16 01:49:22;;;;;;;20.35;6.85;;;;;;;;;;5084440;28;20032;-76
2022/12/16 01:51:48;;;;;;;25.67;6.78;;;;;;;;;;5086366;28;20039;-76
2022/12/16 01:54:27;;;;;;;21.65;7.70;;;1.20;99.90;;;;;;5085102;28;20032;-76
2022/12/16 01:57:01;;;;;;;19.85;6.40;;;;;;;;;;5100992;28;20040;-76
2022/12/16 01:59:28;;;;;;;25.90;6.45;;;;;;;;;;5098949;28;20039;-76
2022/12/16 02:01:54;;;;;;;16.95;5.78;;;;;;;;;;5101754;28;20092;-76
2022/12/16 02:04:20;;;;;;;19.90;6.28;;;;;;;;;;5100390;28;20040;-76
2022/12/16 02:06:46;;;;;;;19.30;6.30;;;;;;;;;;5101324;28;20059;-76
2022/12/16 02:09:16;;;;;;;17.23;6.22;;;1.00;99.90;;;;;;5100328;28;20118;-76
2022/12/16 02:11:55;;;;;;;13.98;6.80;;;1.10;99.90;;;;;;5082836;28;20212;-76
2022/12/16 02:14:21;;;;;;;20.52;6.70;;;;;;;;;;5099970;28;20036;-76
2022/12/16 02:17:27;;;;;;;19.20;6.50;;;0.90;99.90;;;;;;5100626;28;20052;-76
2022/12/16 02:20:02;;;;;;;17.90;7.20;;;;;;;;;;5051288;28;20499;-75
2022/12/16 02:22:44;;;;;;;19.08;6.05;;;;;;;;;;5102306;28;20028;-75
2022/12/16 02:25:16;;;;;;;18.13;5.93;;;;;;;;;;5081732;28;20041;-75
2022/12/16 02:27:49;;;;;;;17.90;6.57;;;1.00;99.90;;;;;;5097529;28;20243;-75
2022/12/16 02:30:33;;;;;;;19.40;7.25;;;;;;;;;;5099151;28;20043;-75
2022/12/16 02:33:09;;;;;;;22.33;6.22;;;;;;;;;;5101267;28;20128;-75
2022/12/16 02:35:39;;;;;;;14.77;5.70;;;;;;;;;;5099386;28;20052;-75
2022/12/16 02:38:11;;;;;;;16.27;6.25;;;;;;;;;;5083772;28;20050;-75
2022/12/16 02:40:47;;;;;;;16.17;6.53;;;;;;;;;;5101243;28;20185;-75
2022/12/16 02:43:23;;;;;;;20.30;7.03;;;;;;;;;;5098318;28;20510;-75
2022/12/16 02:45:50;;;;;;;19.17;6.43;;;;;;;;;;5084343;28;20039;-75
2022/12/16 02:48:16;;;;;;;15.02;6.18;;;;;;;;;;5081389;28;20155;-75
2022/12/16 02:50:45;;;;;;;12.27;6.30;;;;;;;;;;5099063;28;20044;-75
2022/12/16 02:53:11;;;;;;;14.65;6.80;;;;;;;;;;5102666;28;20039;-75
2022/12/16 02:56:05;;;;;;;19.75;7.03;;;0.90;99.90;;;;;;5099731;28;20455;-75
2022/12/16 02:58:52;;;;;;;17.05;6.68;;;;;;;;;;5100138;28;20041;-75
2022/12/16 03:01:34;;;;;;;23.52;6.30;;;0.90;99.90;;;;;;5101543;28;20376;-75
2022/12/16 03:04:04;;;;;;;17.02;6.82;;;;;;;;;;5100017;28;20487;-75
2022/12/16 03:06:32;;;;;;;13.55;6.28;;;1.00;99.90;;;;;;5081511;28;20036;-75
2022/12/16 03:08:59;;;;;;;14.13;6.47;;;;;;;;;;5098931;28;20059;-75
2022/12/16 03:11:27;;;;;;;15.85;6.38;;;;;;;;;;5099689;28;20126;-75
2022/12/16 03:13:55;;;;;;;19.38;7.18;;;;;;;;;;5099646;28;20395;-75
2022/12/16 03:16:24;;;;;;;21.63;6.50;;;;;;;;;;5100737;28;20064;-75
2022/12/16 03:18:54;;;;;;;18.85;7.15;;;1.10;99.90;;;;;;5081884;28;20503;-75
2022/12/16 03:21:21;;;;;;;18.02;6.70;;;;;;;;;;5098448;28;20067;-75
2022/12/16 03:23:50;;;;;;;23.75;7.57;;;;;;;;;;5100151;28;20050;-75
2022/12/16 03:26:21;;;;;;;26.15;7.80;;;;;;;;;;5101531;28;20035;-75
2022/12/16 03:29:09;;;;;;;15.40;7.30;;;0.90;99.90;;;;;;5083302;28;20036;-75
2022/12/16 03:31:49;;;;;;;21.67;6.90;;;0.80;99.90;;;;;;5099958;28;20035;-75
2022/12/16 03:34:36;;;;;;;20.48;6.93;;;;;;;;;;5100514;28;20050;-75
2022/12/16 03:37:05;;;;;;;18.90;7.18;;;0.70;99.90;;;;;;5098052;28;20361;-75
2022/12/16 03:39:35;;;;;;;19.48;7.28;;;0.70;99.90;;;;;;5098458;28;20036;-75
2022/12/16 03:42:02;;;;;;;26.13;8.20;;;0.70;99.90;;;;;;5082905;28;20048;-75
2022/12/16 03:44:28;;;;;;;16.50;7.68;;;;;;;;;;5101044;28;20400;-75
2022/12/16 03:46:55;;;;;;;23.45;7.70;;;;;;;;;;5099181;28;20040;-75
2022/12/16 03:49:22;;;;;;;18.92;7.55;;;;;;;;;;5101776;28;20032;-75
2022/12/16 03:51:48;;;;;;;18.08;7.28;;;;;;;;;;5102833;28;20048;-75
2022/12/16 03:54:14;;;;;;;20.35;8.48;;;;;;;;;;5069226;28;20039;-75
2022/12/16 03:56:40;;;;;;;22.85;7.68;;;;;;;;;;5087147;28;20035;-75
2022/12/16 03:59:06;;;;;;;19.13;8.00;;;;;;;;;;5103185;28;20063;-75
2022/12/16 04:01:32;;;;;;;22.10;7.72;;;;;;;;;;5102594;28;20044;-75
2022/12/16 04:03:58;;;;;;;22.55;8.52;;;;;;;;;;5071520;28;20122;-75
2022/12/16 04:06:24;;;;;;;22.92;7.88;;;;;;;;;;5103402;28;20023;-75
2022/12/16 04:08:50;;;;;;;21.88;8.25;;;;;;;;;;5103553;28;20153;-75
2022/12/16 04:25:31;;;;;;;23.23;8.65;;;;;;;;;;5104778;28;20054;-75
2022/12/16 04:28:01;;;;;;;20.77;9.13;;;;;;;;;;5100870;28;20543;-75
2022/12/16 04:30:28;;;;;;;21.73;8.93;;;;;;;;;;5081870;28;20279;-75
